sensor_id;sensor_type;location;lat;lon;timestamp;noise_LAeq;noise_LA_min;noise_LA_max;noise_LA01;noise_LA95
72028;Laerm;59781;52.090;5.030;2024-02-14T00:01:36;49.17;41.85;72.53;;
72028;Laerm;59781;52.090;5.030;2024-02-14T00:04:03;50.63;42.19;71.04;;
72028;Laerm;59781;52.090;5.030;2024-02-14T00:06:29;54.72;42.46;85.72;;
72028;Laerm;59781;52.090;5.030;2024-02-14T00:08:55;51.16;42.18;72.47;;
72028;Laerm;59781;52.090;5.030;2024-02-14T00:11:20;50.79;41.31;74.68;;
72028;Laerm;59781;52.090;5.030;2024-02-14T00:13:46;52.67;41.18;76.41;;
72028;Laerm;59781;52.090;5.030;2024-02-14T00:16:12;51.12;41.99;74.88;;
72028;Laerm;59781;52.090;5.030;2024-02-14T00:18:38;58.12;42.61;83.54;;
72028;Laerm;59781;52.090;5.030;2024-02-14T00:21:03;63.67;50.89;90.23;;
72028;Laerm;59781;52.090;5.030;2024-02-14T00:23:29;58.49;45.69;86.95;;
72028;Laerm;59781;52.090;5.030;2024-02-14T00:25:55;54.04;42.35;79.33;;
72028;Laerm;59781;52.090;5.030;2024-02-14T00:28:20;51.80;43.29;73.60;;
72028;Laerm;59781;52.090;5.030;2024-02-14T00:30:49;51.61;43.50;77.42;;
72028;Laerm;59781;52.090;5.030;2024-02-14T00:33:15;49.73;42.94;69.88;;
72028;Laerm;59781;52.090;5.030;2024-02-14T00:35:41;51.29;44.07;74.32;;
72028;Laerm;59781;52.090;5.030;2024-02-14T00:38:07;51.51;43.63;75.11;;
72028;Laerm;59781;52.090;5.030;2024-02-14T00:40:33;52.15;43.50;75.46;;
72028;Laerm;59781;52.090;5.030;2024-02-14T00:42:59;53.97;42.47;76.10;;
72028;Laerm;59781;52.090;5.030;2024-02-14T00:45:25;53.85;42.46;75.01;;
72028;Laerm;59781;52.090;5.030;2024-02-14T00:47:50;52.26;43.00;75.28;;
72028;Laerm;59781;52.090;5.030;2024-02-14T00:50:16;54.41;42.06;81.74;;
72028;Laerm;59781;52.090;5.030;2024-02-14T00:52:42;53.19;41.79;78.87;;
72028;Laerm;59781;52.090;5.030;2024-02-14T00:55:08;52.10;41.45;74.25;;
72028;Laerm;59781;52.090;5.030;2024-02-14T00:57:34;49.15;41.44;72.06;;
72028;Laerm;59781;52.090;5.030;2024-02-14T01:00:00;53.38;41.31;77.67;;
72028;Laerm;59781;52.090;5.030;2024-02-14T01:02:26;60.11;41.19;85.27;;
72028;Laerm;59781;52.090;5.030;2024-02-14T01:04:52;51.96;41.44;76.34;;
72028;Laerm;59781;52.090;5.030;2024-02-14T01:07:18;52.64;41.54;73.43;;
72028;Laerm;59781;52.090;5.030;2024-02-14T01:09:43;49.07;40.67;71.68;;
72028;Laerm;59781;52.090;5.030;2024-02-14T01:12:09;53.53;41.57;79.12;;
72028;Laerm;59781;52.090;5.030;2024-02-14T01:14:35;49.59;40.97;73.01;;
72028;Laerm;59781;52.090;5.030;2024-02-14T01:17:00;47.60;40.96;70.61;;
72028;Laerm;59781;52.090;5.030;2024-02-14T01:19:26;48.31;41.14;72.42;;
72028;Laerm;59781;52.090;5.030;2024-02-14T01:21:55;50.76;40.97;76.77;;
72028;Laerm;59781;52.090;5.030;2024-02-14T01:24:23;48.97;40.05;72.08;;
72028;Laerm;59781;52.090;5.030;2024-02-14T01:26:53;58.91;41.07;86.36;;
72028;Laerm;59781;52.090;5.030;2024-02-14T01:29:20;46.32;41.47;71.15;;
72028;Laerm;59781;52.090;5.030;2024-02-14T01:31:46;47.69;40.92;71.41;;
72028;Laerm;59781;52.090;5.030;2024-02-14T01:34:12;52.80;41.39;76.43;;
72028;Laerm;59781;52.090;5.030;2024-02-14T01:36:38;45.91;41.70;67.55;;
72028;Laerm;59781;52.090;5.030;2024-02-14T01:39:04;51.05;40.92;76.11;;
72028;Laerm;59781;52.090;5.030;2024-02-14T01:41:33;49.39;41.06;73.60;;
72028;Laerm;59781;52.090;5.030;2024-02-14T01:43:58;50.73;41.00;76.52;;
72028;Laerm;59781;52.090;5.030;2024-02-14T01:46:25;48.92;41.60;69.59;;
72028;Laerm;59781;52.090;5.030;2024-02-14T01:48:51;57.01;41.90;84.82;;
72028;Laerm;59781;52.090;5.030;2024-02-14T01:51:22;55.40;41.12;82.20;;
72028;Laerm;59781;52.090;5.030;2024-02-14T01:53:52;49.42;41.05;70.15;;
72028;Laerm;59781;52.090;5.030;2024-02-14T01:56:19;50.69;40.84;76.17;;
72028;Laerm;59781;52.090;5.030;2024-02-14T01:58:46;54.57;40.48;81.53;;
72028;Laerm;59781;52.090;5.030;2024-02-14T02:01:13;53.45;40.87;82.25;;
72028;Laerm;59781;52.090;5.030;2024-02-14T02:03:39;51.23;41.24;72.77;;
72028;Laerm;59781;52.090;5.030;2024-02-14T02:06:06;56.28;39.68;84.28;;
72028;Laerm;59781;52.090;5.030;2024-02-14T02:08:32;51.23;41.39;74.32;;
72028;Laerm;59781;52.090;5.030;2024-02-14T02:10:58;53.06;40.80;72.69;;
72028;Laerm;59781;52.090;5.030;2024-02-14T02:13:24;51.47;40.72;73.68;;
72028;Laerm;59781;52.090;5.030;2024-02-14T02:15:53;52.13;41.67;75.96;;
72028;Laerm;59781;52.090;5.030;2024-02-14T02:18:19;51.36;41.24;73.80;;
72028;Laerm;59781;52.090;5.030;2024-02-14T02:20:45;49.58;40.06;71.93;;
72028;Laerm;59781;52.090;5.030;2024-02-14T02:23:12;46.31;41.69;68.62;;
72028;Laerm;59781;52.090;5.030;2024-02-14T02:25:42;50.56;41.81;72.14;;
72028;Laerm;59781;52.090;5.030;2024-02-14T02:28:08;54.30;41.04;78.05;;
72028;Laerm;59781;52.090;5.030;2024-02-14T02:30:37;50.38;41.27;73.31;;
72028;Laerm;59781;52.090;5.030;2024-02-14T02:33:04;47.11;40.47;68.83;;
72028;Laerm;59781;52.090;5.030;2024-02-14T02:35:30;48.87;40.77;69.44;;
72028;Laerm;59781;52.090;5.030;2024-02-14T02:37:56;48.83;42.10;71.59;;
72028;Laerm;59781;52.090;5.030;2024-02-14T02:40:24;49.64;42.41;69.54;;
72028;Laerm;59781;52.090;5.030;2024-02-14T02:42:50;55.52;42.67;84.04;;
72028;Laerm;59781;52.090;5.030;2024-02-14T02:45:19;55.25;42.38;78.50;;
72028;Laerm;59781;52.090;5.030;2024-02-14T02:47:44;53.46;43.27;78.90;;
72028;Laerm;59781;52.090;5.030;2024-02-14T02:50:10;49.58;42.64;73.23;;
72028;Laerm;59781;52.090;5.030;2024-02-14T02:52:37;50.64;41.93;75.19;;
72028;Laerm;59781;52.090;5.030;2024-02-14T02:55:03;48.88;41.87;75.36;;
72028;Laerm;59781;52.090;5.030;2024-02-14T02:57:30;47.56;42.15;70.60;;
72028;Laerm;59781;52.090;5.030;2024-02-14T02:59:58;50.69;41.48;79.57;;
72028;Laerm;59781;52.090;5.030;2024-02-14T03:02:24;46.53;40.00;67.61;;
72028;Laerm;59781;52.090;5.030;2024-02-14T03:04:51;48.03;41.29;67.76;;
72028;Laerm;59781;52.090;5.030;2024-02-14T03:07:19;55.73;42.48;83.19;;
72028;Laerm;59781;52.090;5.030;2024-02-14T03:09:45;51.71;41.63;77.01;;
72028;Laerm;59781;52.090;5.030;2024-02-14T03:12:11;46.89;40.98;63.67;;
72028;Laerm;59781;52.090;5.030;2024-02-14T03:14:41;47.54;41.71;68.30;;
72028;Laerm;59781;52.090;5.030;2024-02-14T03:17:08;52.62;42.16;73.92;;
72028;Laerm;59781;52.090;5.030;2024-02-14T03:19:35;53.30;41.49;78.56;;
72028;Laerm;59781;52.090;5.030;2024-02-14T03:22:04;47.52;41.44;65.49;;
72028;Laerm;59781;52.090;5.030;2024-02-14T03:24:35;49.76;41.91;72.96;;
72028;Laerm;59781;52.090;5.030;2024-02-14T03:27:04;55.06;42.20;77.36;;
72028;Laerm;59781;52.090;5.030;2024-02-14T03:29:30;52.53;42.13;81.21;;
72028;Laerm;59781;52.090;5.030;2024-02-14T03:31:56;50.76;42.75;73.14;;
72028;Laerm;59781;52.090;5.030;2024-02-14T03:34:24;51.19;41.33;74.38;;
72028;Laerm;59781;52.090;5.030;2024-02-14T03:36:50;47.10;41.81;68.56;;
72028;Laerm;59781;52.090;5.030;2024-02-14T03:39:16;51.77;42.37;75.28;;
72028;Laerm;59781;52.090;5.030;2024-02-14T03:41:42;48.93;41.58;70.50;;
72028;Laerm;59781;52.090;5.030;2024-02-14T03:44:08;47.19;41.70;69.22;;
72028;Laerm;59781;52.090;5.030;2024-02-14T03:46:34;47.77;41.98;72.08;;
72028;Laerm;59781;52.090;5.030;2024-02-14T03:49:01;48.24;41.90;67.84;;
72028;Laerm;59781;52.090;5.030;2024-02-14T03:51:27;45.17;42.43;56.08;;
72028;Laerm;59781;52.090;5.030;2024-02-14T03:53:52;48.19;42.18;74.16;;
72028;Laerm;59781;52.090;5.030;2024-02-14T03:56:18;46.27;40.57;67.52;;
72028;Laerm;59781;52.090;5.030;2024-02-14T03:58:44;45.55;41.32;72.27;;
72028;Laerm;59781;52.090;5.030;2024-02-14T04:01:10;45.05;42.02;59.17;;
72028;Laerm;59781;52.090;5.030;2024-02-14T04:03:36;47.06;41.18;67.91;;
72028;Laerm;59781;52.090;5.030;2024-02-14T04:06:01;44.66;41.40;65.43;;
72028;Laerm;59781;52.090;5.030;2024-02-14T04:08:28;50.60;40.74;78.06;;
72028;Laerm;59781;52.090;5.030;2024-02-14T04:10:55;46.88;40.94;70.07;;
72028;Laerm;59781;52.090;5.030;2024-02-14T04:13:22;45.04;41.64;58.15;;
72028;Laerm;59781;52.090;5.030;2024-02-14T04:15:48;46.70;41.73;68.02;;
72028;Laerm;59781;52.090;5.030;2024-02-14T04:18:14;48.96;41.61;74.35;;
72028;Laerm;59781;52.090;5.030;2024-02-14T04:20:41;48.40;42.24;71.89;;
72028;Laerm;59781;52.090;5.030;2024-02-14T04:23:07;45.19;42.73;60.02;;
72028;Laerm;59781;52.090;5.030;2024-02-14T04:25:33;46.05;42.60;60.88;;
72028;Laerm;59781;52.090;5.030;2024-02-14T04:28:00;46.10;42.76;59.24;;
72028;Laerm;59781;52.090;5.030;2024-02-14T04:30:26;46.70;42.49;58.26;;
72028;Laerm;59781;52.090;5.030;2024-02-14T04:32:51;45.98;43.00;49.20;;
72028;Laerm;59781;52.090;5.030;2024-02-14T04:35:20;47.84;43.39;68.09;;
72028;Laerm;59781;52.090;5.030;2024-02-14T04:37:46;46.58;43.23;61.17;;
72028;Laerm;59781;52.090;5.030;2024-02-14T04:40:14;47.15;43.57;62.76;;
72028;Laerm;59781;52.090;5.030;2024-02-14T04:42:43;46.46;43.43;61.23;;
72028;Laerm;59781;52.090;5.030;2024-02-14T04:45:09;46.77;43.53;63.73;;
72028;Laerm;59781;52.090;5.030;2024-02-14T04:47:36;46.61;43.74;59.78;;
72028;Laerm;59781;52.090;5.030;2024-02-14T04:50:02;46.61;43.73;56.79;;
72028;Laerm;59781;52.090;5.030;2024-02-14T04:52:30;48.42;43.16;70.73;;
72028;Laerm;59781;52.090;5.030;2024-02-14T04:54:56;47.99;43.84;69.82;;
72028;Laerm;59781;52.090;5.030;2024-02-14T04:57:22;46.93;43.93;58.33;;
72028;Laerm;59781;52.090;5.030;2024-02-14T04:59:48;49.43;44.59;68.96;;
72028;Laerm;59781;52.090;5.030;2024-02-14T05:02:14;51.24;44.31;70.55;;
72028;Laerm;59781;52.090;5.030;2024-02-14T05:04:40;47.67;44.09;63.65;;
72028;Laerm;59781;52.090;5.030;2024-02-14T05:07:06;49.02;44.68;65.10;;
72028;Laerm;59781;52.090;5.030;2024-02-14T05:09:33;48.93;44.56;64.94;;
72028;Laerm;59781;52.090;5.030;2024-02-14T05:11:58;48.32;44.34;60.90;;
72028;Laerm;59781;52.090;5.030;2024-02-14T05:14:25;48.18;45.33;52.58;;
72028;Laerm;59781;52.090;5.030;2024-02-14T05:16:51;49.06;46.01;57.06;;
72028;Laerm;59781;52.090;5.030;2024-02-14T05:19:17;49.84;44.37;61.20;;
72028;Laerm;59781;52.090;5.030;2024-02-14T05:21:43;50.74;46.12;69.22;;
72028;Laerm;59781;52.090;5.030;2024-02-14T05:24:08;49.15;45.31;65.32;;
72028;Laerm;59781;52.090;5.030;2024-02-14T05:26:34;49.94;44.98;71.60;;
72028;Laerm;59781;52.090;5.030;2024-02-14T05:29:00;49.19;45.58;68.63;;
72028;Laerm;59781;52.090;5.030;2024-02-14T05:31:46;48.64;45.80;56.94;;
72028;Laerm;59781;52.090;5.030;2024-02-14T05:34:13;48.86;44.57;52.67;;
72028;Laerm;59781;52.090;5.030;2024-02-14T05:36:39;48.30;45.58;56.94;;
72028;Laerm;59781;52.090;5.030;2024-02-14T05:39:05;48.34;45.11;58.98;;
72028;Laerm;59781;52.090;5.030;2024-02-14T05:41:34;48.33;45.02;56.83;;
72028;Laerm;59781;52.090;5.030;2024-02-14T05:44:00;48.77;45.12;52.34;;
72028;Laerm;59781;52.090;5.030;2024-02-14T05:46:26;48.27;45.30;57.33;;
72028;Laerm;59781;52.090;5.030;2024-02-14T05:48:51;52.36;45.66;67.55;;
72028;Laerm;59781;52.090;5.030;2024-02-14T05:51:23;48.40;45.74;55.77;;
72028;Laerm;59781;52.090;5.030;2024-02-14T05:53:49;48.43;45.19;63.83;;
72028;Laerm;59781;52.090;5.030;2024-02-14T05:56:14;48.27;45.20;55.59;;
72028;Laerm;59781;52.090;5.030;2024-02-14T05:58:40;48.14;45.19;54.94;;
72028;Laerm;59781;52.090;5.030;2024-02-14T06:01:06;48.15;44.90;57.03;;
72028;Laerm;59781;52.090;5.030;2024-02-14T06:03:32;47.92;45.27;51.77;;
72028;Laerm;59781;52.090;5.030;2024-02-14T06:05:58;47.53;44.30;58.34;;
72028;Laerm;59781;52.090;5.030;2024-02-14T06:08:24;49.72;45.29;68.14;;
72028;Laerm;59781;52.090;5.030;2024-02-14T06:10:50;48.20;44.44;51.97;;
72028;Laerm;59781;52.090;5.030;2024-02-14T06:13:15;47.81;43.96;59.92;;
72028;Laerm;59781;52.090;5.030;2024-02-14T06:15:41;52.21;44.90;74.85;;
72028;Laerm;59781;52.090;5.030;2024-02-14T06:18:07;50.69;44.45;73.62;;
72028;Laerm;59781;52.090;5.030;2024-02-14T06:20:32;49.61;46.03;58.06;;
72028;Laerm;59781;52.090;5.030;2024-02-14T06:22:58;49.36;45.21;63.35;;
72028;Laerm;59781;52.090;5.030;2024-02-14T06:25:24;47.89;44.71;54.77;;
72028;Laerm;59781;52.090;5.030;2024-02-14T06:27:50;48.85;45.81;54.52;;
72028;Laerm;59781;52.090;5.030;2024-02-14T06:30:15;48.77;45.06;58.06;;
72028;Laerm;59781;52.090;5.030;2024-02-14T06:32:42;48.88;45.34;61.68;;
72028;Laerm;59781;52.090;5.030;2024-02-14T06:35:08;50.68;45.89;59.02;;
72028;Laerm;59781;52.090;5.030;2024-02-14T06:37:34;48.80;45.50;66.24;;
72028;Laerm;59781;52.090;5.030;2024-02-14T06:39:59;49.18;45.31;63.13;;
72028;Laerm;59781;52.090;5.030;2024-02-14T06:42:25;49.91;45.51;66.37;;
72028;Laerm;59781;52.090;5.030;2024-02-14T06:44:51;49.99;46.13;67.53;;
72028;Laerm;59781;52.090;5.030;2024-02-14T06:47:17;48.39;44.96;65.63;;
72028;Laerm;59781;52.090;5.030;2024-02-14T06:49:43;48.84;44.81;66.97;;
72028;Laerm;59781;52.090;5.030;2024-02-14T06:52:09;49.01;45.50;66.98;;
72028;Laerm;59781;52.090;5.030;2024-02-14T06:54:35;48.56;45.56;59.54;;
72028;Laerm;59781;52.090;5.030;2024-02-14T06:57:01;50.62;45.48;73.14;;
72028;Laerm;59781;52.090;5.030;2024-02-14T06:59:26;49.16;45.56;62.81;;
72028;Laerm;59781;52.090;5.030;2024-02-14T07:01:52;48.42;45.17;53.76;;
72028;Laerm;59781;52.090;5.030;2024-02-14T07:04:21;52.44;46.05;76.05;;
72028;Laerm;59781;52.090;5.030;2024-02-14T07:06:53;51.61;46.07;64.96;;
72028;Laerm;59781;52.090;5.030;2024-02-14T07:09:19;50.55;46.53;59.84;;
72028;Laerm;59781;52.090;5.030;2024-02-14T07:11:44;49.08;44.47;59.83;;
72028;Laerm;59781;52.090;5.030;2024-02-14T07:14:11;48.70;44.80;59.12;;
72028;Laerm;59781;52.090;5.030;2024-02-14T07:16:37;48.33;44.83;58.48;;
72028;Laerm;59781;52.090;5.030;2024-02-14T07:19:03;48.65;45.87;52.85;;
72028;Laerm;59781;52.090;5.030;2024-02-14T07:21:29;49.78;45.99;68.08;;
72028;Laerm;59781;52.090;5.030;2024-02-14T07:23:55;48.83;45.91;56.35;;
72028;Laerm;59781;52.090;5.030;2024-02-14T07:26:20;49.61;46.01;56.03;;
72028;Laerm;59781;52.090;5.030;2024-02-14T07:28:46;50.56;45.44;74.10;;
72028;Laerm;59781;52.090;5.030;2024-02-14T07:31:12;49.51;45.30;57.49;;
72028;Laerm;59781;52.090;5.030;2024-02-14T07:33:37;49.04;45.37;64.88;;
72028;Laerm;59781;52.090;5.030;2024-02-14T07:36:04;48.28;45.04;57.66;;
72028;Laerm;59781;52.090;5.030;2024-02-14T07:38:30;48.73;45.76;62.16;;
72028;Laerm;59781;52.090;5.030;2024-02-14T07:40:56;48.91;45.61;62.50;;
72028;Laerm;59781;52.090;5.030;2024-02-14T07:43:22;48.15;44.86;67.57;;
72028;Laerm;59781;52.090;5.030;2024-02-14T07:45:48;48.28;45.68;51.45;;
72028;Laerm;59781;52.090;5.030;2024-02-14T07:48:14;48.63;45.42;52.58;;
72028;Laerm;59781;52.090;5.030;2024-02-14T07:50:39;48.89;45.53;55.66;;
72028;Laerm;59781;52.090;5.030;2024-02-14T07:53:05;49.90;46.93;64.65;;
72028;Laerm;59781;52.090;5.030;2024-02-14T07:55:31;49.77;45.41;68.32;;
72028;Laerm;59781;52.090;5.030;2024-02-14T07:57:57;48.89;45.54;54.44;;
72028;Laerm;59781;52.090;5.030;2024-02-14T08:00:25;48.95;44.32;68.02;;
72028;Laerm;59781;52.090;5.030;2024-02-14T08:02:51;48.38;45.01;53.99;;
72028;Laerm;59781;52.090;5.030;2024-02-14T08:05:17;48.55;44.90;63.90;;
72028;Laerm;59781;52.090;5.030;2024-02-14T08:07:45;47.73;44.41;57.53;;
72028;Laerm;59781;52.090;5.030;2024-02-14T08:10:13;49.01;45.83;62.51;;
72028;Laerm;59781;52.090;5.030;2024-02-14T08:12:39;48.60;45.19;62.11;;
72028;Laerm;59781;52.090;5.030;2024-02-14T08:15:05;48.88;44.67;71.62;;
72028;Laerm;59781;52.090;5.030;2024-02-14T08:17:32;49.11;45.91;64.69;;
72028;Laerm;59781;52.090;5.030;2024-02-14T08:19:59;49.58;45.60;68.58;;
72028;Laerm;59781;52.090;5.030;2024-02-14T08:22:25;50.47;46.25;66.09;;
72028;Laerm;59781;52.090;5.030;2024-02-14T08:24:52;49.74;45.33;65.47;;
72028;Laerm;59781;52.090;5.030;2024-02-14T08:27:18;48.84;45.30;63.15;;
72028;Laerm;59781;52.090;5.030;2024-02-14T08:29:44;48.75;46.04;56.79;;
72028;Laerm;59781;52.090;5.030;2024-02-14T08:32:10;48.83;45.00;57.74;;
72028;Laerm;59781;52.090;5.030;2024-02-14T08:34:36;50.23;45.04;71.51;;
72028;Laerm;59781;52.090;5.030;2024-02-14T08:37:02;49.27;45.79;65.89;;
72028;Laerm;59781;52.090;5.030;2024-02-14T08:39:27;49.36;45.64;60.07;;
72028;Laerm;59781;52.090;5.030;2024-02-14T08:41:53;52.14;45.81;76.98;;
72028;Laerm;59781;52.090;5.030;2024-02-14T08:44:19;49.56;45.81;68.59;;
72028;Laerm;59781;52.090;5.030;2024-02-14T08:46:44;49.76;46.01;56.29;;
72028;Laerm;59781;52.090;5.030;2024-02-14T08:49:14;49.63;45.90;72.20;;
72028;Laerm;59781;52.090;5.030;2024-02-14T08:51:39;48.62;45.74;61.89;;
72028;Laerm;59781;52.090;5.030;2024-02-14T08:54:05;48.71;45.47;64.58;;
72028;Laerm;59781;52.090;5.030;2024-02-14T08:56:32;48.75;45.86;55.85;;
72028;Laerm;59781;52.090;5.030;2024-02-14T08:59:02;49.31;45.57;65.49;;
72028;Laerm;59781;52.090;5.030;2024-02-14T09:01:31;47.74;44.42;60.66;;
72028;Laerm;59781;52.090;5.030;2024-02-14T09:03:57;48.66;45.31;52.38;;
72028;Laerm;59781;52.090;5.030;2024-02-14T09:06:25;49.73;45.22;67.43;;
72028;Laerm;59781;52.090;5.030;2024-02-14T09:08:52;49.01;45.71;68.91;;
72028;Laerm;59781;52.090;5.030;2024-02-14T09:11:19;48.69;45.08;54.68;;
72028;Laerm;59781;52.090;5.030;2024-02-14T09:13:45;49.81;45.18;66.98;;
72028;Laerm;59781;52.090;5.030;2024-02-14T09:16:13;48.80;45.32;58.23;;
72028;Laerm;59781;52.090;5.030;2024-02-14T09:18:41;48.92;45.52;59.45;;
72028;Laerm;59781;52.090;5.030;2024-02-14T09:21:06;48.60;45.35;61.59;;
72028;Laerm;59781;52.090;5.030;2024-02-14T09:23:32;49.21;45.50;63.74;;
72028;Laerm;59781;52.090;5.030;2024-02-14T09:25:58;48.98;45.44;67.34;;
72028;Laerm;59781;52.090;5.030;2024-02-14T09:28:24;48.87;45.62;54.90;;
72028;Laerm;59781;52.090;5.030;2024-02-14T09:30:53;49.64;45.71;57.99;;
72028;Laerm;59781;52.090;5.030;2024-02-14T09:33:20;50.86;45.19;69.32;;
72028;Laerm;59781;52.090;5.030;2024-02-14T09:35:45;49.80;46.09;68.34;;
72028;Laerm;59781;52.090;5.030;2024-02-14T09:38:14;48.80;44.86;62.30;;
72028;Laerm;59781;52.090;5.030;2024-02-14T09:40:43;48.43;44.93;59.77;;
72028;Laerm;59781;52.090;5.030;2024-02-14T09:43:38;49.37;44.45;67.21;;
72028;Laerm;59781;52.090;5.030;2024-02-14T09:46:07;48.13;44.74;60.59;;
72028;Laerm;59781;52.090;5.030;2024-02-14T09:48:34;48.44;45.34;55.34;;
72028;Laerm;59781;52.090;5.030;2024-02-14T09:51:00;49.98;45.12;67.97;;
72028;Laerm;59781;52.090;5.030;2024-02-14T09:53:28;49.89;43.74;66.50;;
72028;Laerm;59781;52.090;5.030;2024-02-14T09:55:55;48.86;44.50;66.90;;
72028;Laerm;59781;52.090;5.030;2024-02-14T09:58:23;48.82;44.25;71.06;;
72028;Laerm;59781;52.090;5.030;2024-02-14T10:00:49;48.74;45.54;66.38;;
72028;Laerm;59781;52.090;5.030;2024-02-14T10:03:16;49.01;44.58;75.02;;
72028;Laerm;59781;52.090;5.030;2024-02-14T10:05:42;47.98;44.57;56.48;;
72028;Laerm;59781;52.090;5.030;2024-02-14T10:08:07;48.54;44.93;54.78;;
72028;Laerm;59781;52.090;5.030;2024-02-14T10:10:34;48.08;44.99;58.07;;
72028;Laerm;59781;52.090;5.030;2024-02-14T10:13:04;47.96;44.91;59.33;;
72028;Laerm;59781;52.090;5.030;2024-02-14T10:15:31;49.52;43.66;71.41;;
72028;Laerm;59781;52.090;5.030;2024-02-14T10:18:00;49.68;45.39;69.09;;
72028;Laerm;59781;52.090;5.030;2024-02-14T10:20:26;47.87;44.45;63.15;;
72028;Laerm;59781;52.090;5.030;2024-02-14T10:23:01;50.43;45.03;71.87;;
72028;Laerm;59781;52.090;5.030;2024-02-14T10:25:34;50.33;44.76;67.58;;
72028;Laerm;59781;52.090;5.030;2024-02-14T10:28:07;49.06;44.47;60.11;;
72028;Laerm;59781;52.090;5.030;2024-02-14T10:30:38;51.51;45.45;70.16;;
72028;Laerm;59781;52.090;5.030;2024-02-14T10:33:06;52.83;44.67;78.36;;
72028;Laerm;59781;52.090;5.030;2024-02-14T10:35:35;49.93;44.07;74.74;;
72028;Laerm;59781;52.090;5.030;2024-02-14T10:38:03;49.79;45.11;68.16;;
72028;Laerm;59781;52.090;5.030;2024-02-14T10:40:32;49.29;45.11;72.41;;
72028;Laerm;59781;52.090;5.030;2024-02-14T10:42:59;48.80;44.54;68.95;;
72028;Laerm;59781;52.090;5.030;2024-02-14T10:45:25;48.29;43.85;67.16;;
72028;Laerm;59781;52.090;5.030;2024-02-14T10:47:53;48.28;45.16;61.35;;
72028;Laerm;59781;52.090;5.030;2024-02-14T10:50:27;49.84;45.03;69.04;;
72028;Laerm;59781;52.090;5.030;2024-02-14T10:52:59;48.50;45.28;55.11;;
72028;Laerm;59781;52.090;5.030;2024-02-14T10:55:30;49.07;45.06;60.38;;
72028;Laerm;59781;52.090;5.030;2024-02-14T10:57:57;48.84;45.17;62.88;;
72028;Laerm;59781;52.090;5.030;2024-02-14T11:00:25;49.48;46.15;62.14;;
72028;Laerm;59781;52.090;5.030;2024-02-14T11:02:52;49.13;45.54;64.68;;
72028;Laerm;59781;52.090;5.030;2024-02-14T11:05:20;48.78;45.75;55.92;;
72028;Laerm;59781;52.090;5.030;2024-02-14T11:07:52;49.90;45.98;69.47;;
72028;Laerm;59781;52.090;5.030;2024-02-14T11:10:20;49.76;46.36;60.31;;
72028;Laerm;59781;52.090;5.030;2024-02-14T11:12:49;51.14;46.05;67.83;;
72028;Laerm;59781;52.090;5.030;2024-02-14T11:15:24;50.24;45.44;71.57;;
72028;Laerm;59781;52.090;5.030;2024-02-14T11:17:51;51.19;47.01;69.80;;
72028;Laerm;59781;52.090;5.030;2024-02-14T11:20:31;52.38;45.72;77.41;;
72028;Laerm;59781;52.090;5.030;2024-02-14T11:23:02;52.70;45.97;69.77;;
72028;Laerm;59781;52.090;5.030;2024-02-14T11:25:34;52.37;46.72;74.18;;
72028;Laerm;59781;52.090;5.030;2024-02-14T11:28:23;49.06;45.69;61.85;;
72028;Laerm;59781;52.090;5.030;2024-02-14T11:30:51;49.34;46.17;68.14;;
72028;Laerm;59781;52.090;5.030;2024-02-14T11:33:23;50.65;46.13;70.19;;
72028;Laerm;59781;52.090;5.030;2024-02-14T11:35:52;49.53;45.50;63.21;;
72028;Laerm;59781;52.090;5.030;2024-02-14T11:38:20;49.30;45.69;63.91;;
72028;Laerm;59781;52.090;5.030;2024-02-14T11:40:46;49.10;44.92;62.02;;
72028;Laerm;59781;52.090;5.030;2024-02-14T11:43:17;50.09;46.13;73.30;;
72028;Laerm;59781;52.090;5.030;2024-02-14T11:45:44;49.42;45.49;65.94;;
72028;Laerm;59781;52.090;5.030;2024-02-14T11:48:13;50.12;46.00;65.21;;
72028;Laerm;59781;52.090;5.030;2024-02-14T11:50:41;55.91;45.17;80.84;;
72028;Laerm;59781;52.090;5.030;2024-02-14T11:53:10;49.34;45.97;68.33;;
72028;Laerm;59781;52.090;5.030;2024-02-14T11:55:40;51.06;46.10;68.61;;
72028;Laerm;59781;52.090;5.030;2024-02-14T11:58:11;51.75;45.67;74.54;;
72028;Laerm;59781;52.090;5.030;2024-02-14T12:00:42;52.91;47.22;73.71;;
72028;Laerm;59781;52.090;5.030;2024-02-14T12:03:15;57.04;47.99;82.00;;
72028;Laerm;59781;52.090;5.030;2024-02-14T12:05:42;52.89;46.48;77.85;;
72028;Laerm;59781;52.090;5.030;2024-02-14T12:08:14;53.29;47.28;75.67;;
72028;Laerm;59781;52.090;5.030;2024-02-14T12:10:43;53.29;47.75;75.44;;
72028;Laerm;59781;52.090;5.030;2024-02-14T12:13:14;55.33;47.87;77.42;;
72028;Laerm;59781;52.090;5.030;2024-02-14T12:15:48;61.43;50.02;82.47;;
72028;Laerm;59781;52.090;5.030;2024-02-14T12:18:16;59.45;49.49;81.98;;
72028;Laerm;59781;52.090;5.030;2024-02-14T12:20:43;54.96;48.03;74.80;;
72028;Laerm;59781;52.090;5.030;2024-02-14T12:23:15;56.67;47.47;74.79;;
72028;Laerm;59781;52.090;5.030;2024-02-14T12:25:46;50.24;47.01;62.93;;
72028;Laerm;59781;52.090;5.030;2024-02-14T12:28:19;49.99;46.25;61.72;;
72028;Laerm;59781;52.090;5.030;2024-02-14T12:30:51;50.28;45.82;66.19;;
72028;Laerm;59781;52.090;5.030;2024-02-14T12:33:22;56.03;46.95;82.69;;
72028;Laerm;59781;52.090;5.030;2024-02-14T12:35:54;55.38;48.40;77.64;;
72028;Laerm;59781;52.090;5.030;2024-02-14T12:38:21;51.88;46.47;75.62;;
72028;Laerm;59781;52.090;5.030;2024-02-14T12:40:49;50.37;45.95;65.95;;
72028;Laerm;59781;52.090;5.030;2024-02-14T12:43:16;49.88;46.26;58.54;;
72028;Laerm;59781;52.090;5.030;2024-02-14T12:45:42;50.94;46.20;60.04;;
72028;Laerm;59781;52.090;5.030;2024-02-14T12:48:09;51.51;46.82;71.54;;
72028;Laerm;59781;52.090;5.030;2024-02-14T12:50:38;51.03;47.67;61.89;;
72028;Laerm;59781;52.090;5.030;2024-02-14T12:53:05;50.99;46.43;67.25;;
72028;Laerm;59781;52.090;5.030;2024-02-14T12:55:31;49.81;46.04;59.83;;
72028;Laerm;59781;52.090;5.030;2024-02-14T12:57:57;54.41;45.72;74.61;;
72028;Laerm;59781;52.090;5.030;2024-02-14T13:00:23;50.28;46.66;71.37;;
72028;Laerm;59781;52.090;5.030;2024-02-14T13:02:50;49.62;45.79;62.53;;
72028;Laerm;59781;52.090;5.030;2024-02-14T13:05:16;52.27;46.39;70.19;;
72028;Laerm;59781;52.090;5.030;2024-02-14T13:07:43;50.46;46.57;69.70;;
72028;Laerm;59781;52.090;5.030;2024-02-14T13:10:09;59.73;46.62;85.31;;
72028;Laerm;59781;52.090;5.030;2024-02-14T13:12:37;50.73;46.70;71.46;;
72028;Laerm;59781;52.090;5.030;2024-02-14T13:15:08;52.14;47.03;72.22;;
72028;Laerm;59781;52.090;5.030;2024-02-14T13:17:33;52.82;46.59;78.12;;
72028;Laerm;59781;52.090;5.030;2024-02-14T13:19:59;56.41;46.06;83.45;;
72028;Laerm;59781;52.090;5.030;2024-02-14T13:22:28;52.42;45.68;73.27;;
72028;Laerm;59781;52.090;5.030;2024-02-14T13:24:53;50.56;46.05;68.93;;
72028;Laerm;59781;52.090;5.030;2024-02-14T13:27:22;48.92;46.27;55.57;;
72028;Laerm;59781;52.090;5.030;2024-02-14T13:29:49;56.13;47.71;82.08;;
72028;Laerm;59781;52.090;5.030;2024-02-14T13:32:15;50.05;47.08;59.34;;
72028;Laerm;59781;52.090;5.030;2024-02-14T13:34:41;50.98;46.96;71.53;;
72028;Laerm;59781;52.090;5.030;2024-02-14T13:37:09;50.27;46.56;64.78;;
72028;Laerm;59781;52.090;5.030;2024-02-14T13:39:35;50.87;46.70;72.12;;
72028;Laerm;59781;52.090;5.030;2024-02-14T13:42:01;51.39;47.31;67.69;;
72028;Laerm;59781;52.090;5.030;2024-02-14T13:44:27;52.51;47.60;74.73;;